Departure ICAO
Arrival ICAO

The revolutionary moving map for travelling passengers has finally arrived
More information here

LFMD Cannes Mandelieu - EGKB London Biggin Hill


Distance 545 NM


LFMN Nice Cote D'Azur VFR

METAR LFMN 132130Z 33008KT 9999 BKN022 BKN260 15/12 Q1028 NOSIG

TAF LFMN 132000Z 1321/1503 33010KT 9999 BKN020 PROB30 TEMPO 1400/1410 BKN014 BECMG 1410/1412 09010KT PROB30 TEMPO 1414/1423 BKN014 BECMG 1417/1419 33010KT


LFMD Cannes Mandelieu VFR CAVOK

METAR LFMD 132130Z AUTO 35003KT 320V050 CAVOK 13/12 Q1027 NOSIG

TAF LFMD 131400Z 1315/1415 VRB02KT CAVOK PROB40 TEMPO 1400/1409 BKN014


LFLB Chambery Aix Les Bains VFR

METAR LFLB 132130Z AUTO 36008KT 9999 OVC018 13/11 Q1030 TEMPO 4000 BR

TAF LFLB 131700Z 1318/1418 36004KT 9999 BKN060 BKN090 BECMG 1318/1321 CAVOK PROB30 TEMPO 1323/1407 4000 BR


LFLS Grenoble Saint Geoirs IFR CAT I

METAR LFLS 132130Z AUTO VRB02KT 3400 BR BKN007 BKN033 10/09 Q1029

TAF LFLS 131400Z 1315/1415 36005KT 9999 SCT054 OVC090 BECMG 1318/1320 VRB02KT CAVOK BECMG 1323/1402 4000 BR TEMPO 1405/1408 1500 BCFG OVC002


LFLL Lyon Saint Exupery IFR CAT I

METAR LFLL 132130Z 36005KT 340V040 4100 1600E R35L/1400U R35R/1200U BR VV/// 11/10 Q1030 NOSIG

TAF AMD LFLL 132101Z 1321/1424 33004KT 3000 BR OVC002 PROB40 TEMPO 1321/1408 0400 FG VV/// BECMG 1408/1410 3000 OVC003 TEMPO 1413/1417 8000 NSW FEW005 BECMG 1418/1421 0400 FG VV///


LFLY Lyon Bron VFR

METAR LFLY 132130Z AUTO VRB01KT 7000 OVC027 11/09 Q1030 BECMG 3000 BR

TAF LFLY 131700Z 1318/1418 36004KT 9999 OVC035 BECMG 1318/1321 VRB02KT 6000 SCT030 BECMG 1321/1323 3000 BR BECMG 1400/1402 0800 FG OVC002 PROB40 TEMPO 1402/1409 0400 FG VV/// BECMG 1409/1411 6000 BKN008 BECMG 1411/1413 8000 SCT015


LFLN Saint Yan IFR CAT I

METAR LFLN 132130Z AUTO 00000KT 2500 1000 R33/1200D BR SCT024 SCT030 09/08 Q1030 TEMPO 0300 FG VV///

TAF AMD LFLN 132026Z 1320/1403 VRB02KT 6000 BKN025 BECMG 1320/1322 3000 BR SCT001 PROB40 1322/1403 0300 FG VV///


LFPM Melun Villaroche VFR

METAR LFPM 132130Z AUTO 15003KT 8000 NSC 06/06 Q1029


LFPO Paris Orly VFR CAVOK

METAR LFPO 132130Z 20003KT CAVOK 08/07 Q1029 NOSIG

TAF LFPO 131700Z 1318/1424 20005KT CAVOK BECMG 1321/1323 3000 BR TEMPO 1323/1410 VRB02KT 0800 BCFG BKN002 PROB30 TEMPO 1403/1409 0200 FG VV/// BECMG 1411/1413 9999 NSW BECMG 1420/1422 3000 BR


LFPG Paris Charles De Gaulle VFR CAVOK

METAR LFPG 132130Z 18006KT CAVOK 09/07 Q1029 NOSIG

TAF LFPG 131700Z 1318/1424 21010KT CAVOK TX13/1415Z TN05/1406Z BECMG 1323/1401 12004KT 3000 BR BECMG 1402/1404 1500 BR BKN002 PROB40 1402/1410 0500 FG VV/// BECMG 1411/1413 6000 NSW BKN007 BECMG 1413/1415 SCT012 BECMG 1419/1421 3000 BR


LFPB Paris Le Bourget VFR CAVOK

METAR LFPB 132130Z AUTO 11002KT CAVOK 08/06 Q1029 TEMPO 21010KT BECMG 3000 BR

TAF LFPB 131700Z 1318/1418 21010KT CAVOK TX13/1415Z TN05/1406Z BECMG 1323/1401 12004KT 3000 BR BECMG 1402/1404 1500 BR BKN002 PROB40 1402/1410 0500 FG VV/// BECMG 1411/1413 6000 NSW BKN007 BECMG 1413/1415 SCT012


LFPV Villacoublay Velizy VFR CAVOK

METAR LFPV 132130Z AUTO 19004KT CAVOK 09/07 Q1029 NOSIG

TAF LFPV 132000Z 1321/1421 VRB03KT CAVOK BECMG 1400/1402 4000 BR BECMG 1402/1404 0500 FG BECMG 1408/1410 24006KT 6000 NSW BKN005 BECMG 1411/1413 SCT015


LFPN Toussous Le Noble VFR CAVOK

METAR LFPN 132130Z AUTO 18003KT CAVOK 06/05 Q1029

TAF LFPN 131700Z 1318/1403 20005KT CAVOK BECMG 1321/1323 3000 BR TEMPO 1323/1403 0800 FG BKN002 PROB30 TEMPO 1401/1403 0200 FG VV///


LFPT Pontoise Cormeilles En Vexin VFR

METAR LFPT 132130Z AUTO 08002KT 5000 BR NSC 05/04 Q1029


LFOB Beauvais Tille VFR CAVOK

METAR LFOB 132130Z AUTO 10002KT CAVOK 06/05 Q1029 TEMPO 0800 FG

TAF LFOB 131700Z 1318/1418 18006KT CAVOK BECMG 1320/1323 2000 BR TEMPO 1323/1403 0800 FG BECMG 1403/1406 OVC002 PROB40 1403/1412 0200 FG VV/// BECMG 1412/1415 6000 NSW BKN005 PROB30 1415/1418 NSC


LFAT Le Tourquet Paris Plage VFR CAVOK

METAR LFAT 132130Z AUTO 16004KT CAVOK 08/07 Q1028

TAF LFAT 131400Z 1315/1324 24010KT 9999 BKN020 TEMPO 1315/1318 4000 SHRA BECMG 1318/1320 18007KT


EGMD Lydd VFR

METAR EGMD 132150Z AUTO 22011KT 9999 FEW022/// SCT027/// BKN048/// 13/10 Q1026

TAF EGMD 131957Z 1321/1406 21010KT 9999 FEW025


EGKA Shoreham By Sea Shoreham VFR

METAR EGKA 131950Z 22010KT 9999 FEW028 12/10 Q1025

TAF EGKA 131400Z 1315/1319 25013KT 9999 FEW020


EGKB London Biggin Hill VFR CAVOK

METAR EGKB 132150Z 19009KT CAVOK 09/08 Q1025

TAF EGKB 131703Z 1318/1322 18010KT 9999 FEW020


EGKK London Gatwick VFR CAVOK

METAR EGKK 132150Z 19003KT CAVOK 09/09 Q1026

TAF EGKK 131703Z 1318/1424 19006KT 9999 FEW030 PROB30 1323/1408 8000 PROB30 TEMPO 1419/1424 BKN010


EGLC London City VFR

METAR EGLC 132150Z AUTO 18005KT 120V240 9999 NCD 11/09 Q1025

TAF EGLC 131703Z 1318/1321 19008KT 9999 FEW030


EGSS London Stansted VFR

METAR EGSS 132150Z AUTO 17007KT 9999 NCD 08/07 Q1025

TAF EGSS 131703Z 1318/1424 22010KT 9999 FEW040 BECMG 1421/1424 8000 BKN008 PROB30 1423/1424 3000 BR BKN002


EGLL London Heathrow VFR

METAR EGLL 132150Z AUTO 19007KT 160V250 9999 NCD 10/08 Q1025 NOSIG

TAF EGLL 131703Z 1318/1424 19008KT 9999 FEW030 TEMPO 1420/1424 8000 BKN014


EGWU Northolt VFR CAVOK

METAR EGWU 132050Z 21005KT CAVOK 10/08 Q1025 NOSIG

TAF EGWU 131944Z 1321/1415 22008KT 9999 FEW030 PROB30 TEMPO 1408/1415 SCT022


EGLF London Farnborough VFR CAVOK

METAR EGLF 132120Z 14005KT CAVOK 09/08 Q1025

TAF EGLF 131703Z 1318/1322 18008KT 9999 FEW020



NOTAMS LFMD

 NOTAMS EGKB